Time;durP1;ratioP1;P1;durP2;ratioP2;P2;SDS_P1;SDS_P2;PMS_P1;PMS_P2;Temp;Humidity;BMP_temperature;BMP_pressure;BME280_temperature;BME280_humidity;BME280_pressure;Samples;Min_cycle;Max_cycle;Signal;HPM_P1;HPM_P2
2022/11/22 00:02:15;;;;;;;27.83;18.13;;;2.70;99.90;;;;;;5037071;28;20436;-72
2022/11/22 00:04:40;;;;;;;31.23;19.13;;;2.70;99.90;;;;;;5042024;28;20899;-73
2022/11/22 00:07:06;;;;;;;31.85;20.40;;;2.70;99.90;;;;;;5047039;28;20990;-73
2022/11/22 00:09:32;;;;;;;29.98;18.65;;;2.70;99.90;;;;;;5047190;28;20830;-73
2022/11/22 00:11:58;;;;;;;31.90;19.92;;;2.70;99.90;;;;;;5046325;28;20409;-73
2022/11/22 00:14:24;;;;;;;32.20;19.73;;;2.70;99.90;;;;;;5036056;28;20461;-73
2022/11/22 00:16:49;;;;;;;32.13;19.52;;;2.70;99.90;;;;;;5025237;28;20437;-73
2022/11/22 00:19:15;;;;;;;35.13;19.30;;;2.70;99.90;;;;;;5036144;28;20414;-72
2022/11/22 00:21:40;;;;;;;31.15;19.30;;;2.70;99.90;;;;;;5029295;28;20412;-73
2022/11/22 00:24:06;;;;;;;33.07;19.37;;;2.70;99.90;;;;;;5028682;28;20482;-72
2022/11/22 00:26:32;;;;;;;36.72;20.63;;;2.70;99.90;;;;;;5048966;28;20970;-73
2022/11/22 00:28:57;;;;;;;36.83;20.87;;;2.70;99.90;;;;;;5048241;28;20931;-73
2022/11/22 00:31:23;;;;;;;43.40;24.30;;;2.70;99.90;;;;;;5046986;28;20413;-72
2022/11/22 00:33:49;;;;;;;41.35;23.92;;;2.70;99.90;;;;;;5042553;28;20911;-73
2022/11/22 00:36:16;;;;;;;46.70;24.80;;;2.70;99.90;;;;;;5036317;28;20417;-73
2022/11/22 00:38:42;;;;;;;49.47;25.60;;;2.70;99.90;;;;;;5030603;28;20414;-73
2022/11/22 00:41:08;;;;;;;46.92;24.90;;;2.70;99.90;;;;;;5020610;28;20407;-73
2022/11/22 00:43:33;;;;;;;47.47;24.30;;;2.70;99.90;;;;;;5024040;28;20414;-72
2022/11/22 00:45:59;;;;;;;47.72;24.90;;;2.80;99.90;;;;;;5049018;28;20408;-73
2022/11/22 00:48:25;;;;;;;49.00;25.92;;;2.70;99.90;;;;;;5039887;28;20399;-72
2022/11/22 00:50:51;;;;;;;49.40;26.43;;;2.80;99.90;;;;;;5049046;28;20476;-73
2022/11/22 00:53:16;;;;;;;48.63;26.67;;;2.80;99.90;;;;;;5029791;28;20500;-72
2022/11/22 00:55:44;;;;;;;53.20;27.30;;;2.80;99.90;;;;;;5045324;28;20414;-73
2022/11/22 00:58:10;;;;;;;52.65;26.77;;;2.80;99.90;;;;;;5041555;28;20928;-73
2022/11/22 01:00:35;;;;;;;52.00;26.83;;;2.80;99.90;;;;;;5029835;28;20404;-72
2022/11/22 01:03:01;;;;;;;48.17;26.07;;;2.80;99.90;;;;;;5029513;28;20494;-73
2022/11/22 01:05:27;;;;;;;49.28;25.33;;;2.80;99.90;;;;;;5036873;28;20529;-72
2022/11/22 01:07:52;;;;;;;52.38;25.73;;;2.80;99.90;;;;;;5024096;28;20959;-73
2022/11/22 01:10:18;;;;;;;49.00;26.48;;;2.80;99.90;;;;;;5045202;28;20532;-74
2022/11/22 01:12:44;;;;;;;51.57;26.23;;;2.80;99.90;;;;;;5035235;28;20431;-75
2022/11/22 01:15:10;;;;;;;52.60;26.45;;;2.70;99.90;;;;;;5024210;28;20394;-75
2022/11/22 01:17:36;;;;;;;52.05;27.38;;;2.70;99.90;;;;;;5027149;28;20403;-73
2022/11/22 01:20:02;;;;;;;55.42;27.17;;;2.80;99.90;;;;;;5026032;28;20414;-72
2022/11/22 01:22:28;;;;;;;57.75;29.00;;;2.80;99.90;;;;;;4997278;28;20436;-73
2022/11/22 01:24:54;;;;;;;57.67;29.25;;;2.80;99.90;;;;;;5044687;28;20441;-72
2022/11/22 01:27:19;;;;;;;57.00;30.23;;;2.80;99.90;;;;;;5046798;28;20991;-73
2022/11/22 01:29:45;;;;;;;52.20;29.17;;;2.80;99.90;;;;;;5045114;28;20425;-73
2022/11/22 01:32:11;;;;;;;53.97;29.13;;;2.80;99.90;;;;;;5024943;28;20399;-73
2022/11/22 01:34:36;;;;;;;50.40;27.63;;;2.80;99.90;;;;;;5047729;28;20775;-72
2022/11/22 01:37:02;;;;;;;49.50;29.02;;;2.80;99.90;;;;;;5032882;28;21716;-73
2022/11/22 01:39:27;;;;;;;45.90;27.27;;;2.80;99.90;;;;;;5036740;28;20547;-73
2022/11/22 01:41:53;;;;;;;45.97;27.20;;;2.80;99.90;;;;;;5031721;28;20407;-73
2022/11/22 01:44:26;;;;;;;49.67;27.65;;;2.80;99.90;;;;;;5029127;28;21327;-73
2022/11/22 01:47:20;;;;;;;47.30;27.25;;;2.80;99.90;;;;;;5010617;28;20421;-73
2022/11/22 01:49:59;;;;;;;46.22;26.58;;;2.80;99.90;;;;;;5025753;28;20439;-72
2022/11/22 01:52:28;;;;;;;45.47;27.38;;;2.80;99.90;;;;;;5022105;28;20486;-73
2022/11/22 01:55:08;;;;;;;43.10;26.38;;;2.80;99.90;;;;;;5002241;28;20410;-73
2022/11/22 01:57:37;;;;;;;43.88;26.45;;;2.80;99.90;;;;;;5012123;28;20948;-74
2022/11/22 02:00:10;;;;;;;41.80;26.00;;;2.80;99.90;;;;;;5018039;28;20482;-73
2022/11/22 02:02:36;;;;;;;42.97;26.02;;;2.80;99.90;;;;;;5041467;28;20913;-73
2022/11/22 02:05:07;;;;;;;42.60;26.10;;;2.80;99.90;;;;;;5028900;28;20403;-72
2022/11/22 02:07:54;;;;;;;41.72;26.08;;;2.80;99.90;;;;;;5034655;28;20413;-73
2022/11/22 02:10:23;;;;;;;42.03;25.55;;;2.80;99.90;;;;;;5028511;28;20440;-72
2022/11/22 02:12:52;;;;;;;40.05;25.33;;;2.80;99.90;;;;;;5030586;28;20591;-73
2022/11/22 02:15:17;;;;;;;43.67;26.13;;;2.80;99.90;;;;;;5026120;28;20413;-72
2022/11/22 02:17:44;;;;;;;43.05;26.08;;;2.80;99.90;;;;;;5000229;28;21052;-73
2022/11/22 02:20:10;;;;;;;43.83;26.63;;;2.80;99.90;;;;;;5044987;28;20411;-73
2022/11/22 02:22:52;;;;;;;41.88;26.33;;;2.70;99.90;;;;;;5017200;28;20411;-73
2022/11/22 02:25:28;;;;;;;45.20;26.77;;;2.80;99.90;;;;;;5046816;28;20413;-73
2022/11/22 02:27:53;;;;;;;44.63;27.35;;;2.70;99.90;;;;;;5029779;28;20478;-72
2022/11/22 02:30:19;;;;;;;45.83;27.90;;;2.80;99.90;;;;;;5047539;28;20428;-73
2022/11/22 02:32:45;;;;;;;45.25;27.33;;;2.80;99.90;;;;;;5029528;28;20413;-73
2022/11/22 02:35:18;;;;;;;44.87;26.63;;;2.80;99.90;;;;;;5028016;28;20428;-72
2022/11/22 02:37:45;;;;;;;43.72;26.70;;;2.80;99.90;;;;;;5039760;28;20413;-72
2022/11/22 02:40:14;;;;;;;41.88;25.48;;;2.80;99.90;;;;;;5030016;28;20413;-72
2022/11/22 02:42:44;;;;;;;44.38;26.20;;;2.80;99.90;;;;;;5047489;28;20409;-73
2022/11/22 02:45:10;;;;;;;41.63;24.80;;;2.80;99.90;;;;;;5046222;28;20416;-72
2022/11/22 02:47:36;;;;;;;43.63;24.88;;;2.80;99.90;;;;;;5047875;28;20410;-72
2022/11/22 02:50:02;;;;;;;40.08;23.73;;;2.80;99.90;;;;;;5029639;28;20435;-72
2022/11/22 02:52:27;;;;;;;41.42;24.17;;;2.80;99.90;;;;;;5028590;28;20413;-72
2022/11/22 02:54:53;;;;;;;42.37;25.07;;;2.90;99.90;;;;;;5026817;28;20411;-73
2022/11/22 02:57:18;;;;;;;43.50;24.53;;;2.90;99.90;;;;;;5029330;28;20482;-73
2022/11/22 02:59:44;;;;;;;43.17;24.83;;;2.90;99.90;;;;;;5043255;28;20745;-73
2022/11/22 03:02:10;;;;;;;40.40;23.60;;;2.90;99.90;;;;;;5021962;28;20409;-73
2022/11/22 03:04:35;;;;;;;39.20;23.47;;;2.90;99.90;;;;;;5047725;28;20426;-73
2022/11/22 03:07:01;;;;;;;38.33;23.53;;;2.90;99.90;;;;;;5049547;28;20413;-72
2022/11/22 03:09:27;;;;;;;40.40;23.33;;;2.90;99.90;;;;;;5050905;28;20495;-72
2022/11/22 03:11:53;;;;;;;42.28;24.15;;;2.90;99.90;;;;;;5051457;28;20398;-73
2022/11/22 03:14:19;;;;;;;40.25;23.45;;;2.90;99.90;;;;;;5045724;28;20401;-73
2022/11/22 03:16:46;;;;;;;40.17;23.13;;;2.90;99.90;;;;;;5032572;28;20416;-73
2022/11/22 03:19:12;;;;;;;39.65;23.55;;;2.90;99.90;;;;;;5051141;28;20483;-72
2022/11/22 03:21:40;;;;;;;41.03;22.80;;;3.00;99.90;;;;;;5033772;28;20541;-73
2022/11/22 03:24:07;;;;;;;40.42;22.80;;;3.00;99.90;;;;;;5031452;28;20430;-73
2022/11/22 03:26:33;;;;;;;39.45;22.42;;;3.00;99.90;;;;;;5031371;28;20405;-73
2022/11/22 03:28:59;;;;;;;37.75;21.48;;;3.00;99.90;;;;;;5039925;28;20459;-73
2022/11/22 03:31:25;;;;;;;37.80;21.50;;;3.00;99.90;;;;;;5042411;28;20487;-72
2022/11/22 03:33:50;;;;;;;40.33;22.08;;;3.00;99.90;;;;;;5049326;28;20990;-73
2022/11/22 03:36:16;;;;;;;38.22;21.98;;;3.10;99.90;;;;;;5029646;28;20488;-72
2022/11/22 03:38:42;;;;;;;39.70;22.30;;;3.10;99.90;;;;;;5037465;28;20861;-72
2022/11/22 03:41:07;;;;;;;38.60;21.83;;;3.10;99.90;;;;;;5047635;28;20563;-73
2022/11/22 03:43:33;;;;;;;38.40;21.90;;;3.10;99.90;;;;;;5037987;28;20407;-73
2022/11/22 03:45:58;;;;;;;38.65;21.73;;;3.10;99.90;;;;;;5001454;28;20775;-72
2022/11/22 03:48:24;;;;;;;39.25;21.50;;;3.10;99.90;;;;;;5042827;28;20405;-72
2022/11/22 03:50:50;;;;;;;37.37;20.90;;;3.10;99.90;;;;;;5035293;28;20924;-73
2022/11/22 03:53:15;;;;;;;42.33;21.83;;;3.10;99.90;;;;;;5031109;28;20418;-73
2022/11/22 03:55:41;;;;;;;37.43;21.40;;;3.20;99.90;;;;;;5016718;28;20407;-73
2022/11/22 03:58:06;;;;;;;38.25;21.50;;;3.20;99.90;;;;;;5031382;28;20762;-73
2022/11/22 04:00:34;;;;;;;37.80;21.07;;;3.10;99.90;;;;;;5033246;28;20410;-72
2022/11/22 04:02:59;;;;;;;42.97;22.20;;;3.20;99.90;;;;;;5020038;28;20417;-72
2022/11/22 04:05:25;;;;;;;39.27;21.27;;;3.20;99.90;;;;;;5050676;28;20968;-73
2022/11/22 04:07:54;;;;;;;39.95;21.00;;;3.20;99.90;;;;;;5050620;28;20763;-72
2022/11/22 04:10:22;;;;;;;40.60;21.90;;;3.20;99.90;;;;;;5045779;28;20793;-73
2022/11/22 04:12:47;;;;;;;39.10;21.30;;;3.20;99.90;;;;;;5032829;28;20429;-72
2022/11/22 04:15:13;;;;;;;37.20;20.73;;;3.20;99.90;;;;;;5039840;28;20427;-72
2022/11/22 04:17:44;;;;;;;40.08;21.02;;;3.20;99.90;;;;;;5049168;28;20924;-73
2022/11/22 04:23:13;;;;;;;36.67;20.77;;;3.20;99.90;;;;;;4986036;28;20852;-73
2022/11/22 04:25:45;;;;;;;38.65;21.38;;;3.20;99.90;;;;;;5032627;28;20409;-73
2022/11/22 04:28:12;;;;;;;38.10;21.50;;;3.20;99.90;;;;;;5048819;28;20455;-73
2022/11/22 04:33:22;;;;;;;37.55;21.05;;;3.30;99.90;;;;;;5019085;28;20404;-72
2022/11/22 04:35:48;;;;;;;35.92;20.85;;;3.20;99.90;;;;;;5044413;28;20818;-73
2022/11/22 04:38:15;;;;;;;38.10;20.88;;;3.20;99.90;;;;;;5030266;28;20432;-73
2022/11/22 04:40:41;;;;;;;39.50;21.37;;;3.20;99.90;;;;;;5024836;28;20936;-73
2022/11/22 04:45:57;;;;;;;37.08;21.13;;;3.20;99.90;;;;;;5035125;28;20429;-72
2022/11/22 04:48:22;;;;;;;42.57;22.00;;;3.20;99.90;;;;;;5024983;28;20487;-72
2022/11/22 04:53:32;;;;;;;36.88;20.98;;;3.30;99.90;;;;;;5031682;28;20424;-72
2022/11/22 04:55:58;;;;;;;36.33;20.67;;;3.30;99.90;;;;;;5019178;28;20466;-72
2022/11/22 04:58:23;;;;;;;38.95;20.05;;;3.30;99.90;;;;;;5036567;28;20742;-72
2022/11/22 05:00:49;;;;;;;38.47;20.77;;;3.30;99.90;;;;;;5049969;28;20405;-72
2022/11/22 05:03:15;;;;;;;37.00;21.38;;;3.30;99.90;;;;;;5040132;28;20600;-73
2022/11/22 05:05:42;;;;;;;38.85;21.38;;;3.30;99.90;;;;;;5037450;28;20393;-73
2022/11/22 05:08:08;;;;;;;40.53;21.45;;;3.30;99.90;;;;;;5035450;28;20407;-73
2022/11/22 05:13:21;;;;;;;41.80;21.23;;;3.30;99.90;;;;;;5029063;28;20411;-73
2022/11/22 05:15:48;;;;;;;39.78;21.02;;;3.40;99.90;;;;;;5010109;28;20408;-73
2022/11/22 05:18:13;;;;;;;40.03;21.10;;;3.30;99.90;;;;;;5029288;28;20461;-73
2022/11/22 05:20:39;;;;;;;42.40;21.63;;;3.40;99.90;;;;;;5011690;28;20790;-73
2022/11/22 05:25:49;;;;;;;38.75;21.75;;;3.40;99.90;;;;;;5029380;28;20755;-73
2022/11/22 05:28:14;;;;;;;42.57;21.60;;;3.40;99.90;;;;;;5017843;28;20406;-73
2022/11/22 05:30:41;;;;;;;38.73;21.77;;;3.40;99.90;;;;;;5028642;28;20843;-73
2022/11/22 05:33:06;;;;;;;40.58;21.75;;;3.50;99.90;;;;;;5028409;28;20994;-74
2022/11/22 05:35:33;;;;;;;40.65;22.13;;;3.50;99.90;;;;;;5019287;28;20546;-73
2022/11/22 05:37:58;;;;;;;38.15;21.00;;;3.50;99.90;;;;;;5010869;28;20419;-73
2022/11/22 05:40:25;;;;;;;38.40;21.05;;;3.50;99.90;;;;;;5011873;28;20403;-73
2022/11/22 05:42:51;;;;;;;41.15;21.50;;;3.50;99.90;;;;;;5024988;28;20405;-73
2022/11/22 05:45:17;;;;;;;39.78;21.98;;;3.50;99.90;;;;;;5021659;28;20411;-73
2022/11/22 05:47:43;;;;;;;41.75;21.65;;;3.50;99.90;;;;;;5000686;28;20786;-72
2022/11/22 05:50:09;;;;;;;41.07;21.70;;;3.50;99.90;;;;;;4999972;28;20440;-74
2022/11/22 05:52:35;;;;;;;37.23;21.57;;;3.60;99.90;;;;;;4998446;28;20469;-73
2022/11/22 05:55:00;;;;;;;42.00;21.67;;;3.60;99.90;;;;;;4993404;28;20425;-73
2022/11/22 05:57:26;;;;;;;40.80;21.58;;;3.60;99.90;;;;;;4977852;28;20427;-73
2022/11/22 05:59:53;;;;;;;39.22;21.10;;;3.60;99.90;;;;;;5006471;28;20436;-73
2022/11/22 06:02:19;;;;;;;42.30;22.80;;;3.60;99.90;;;;;;5005834;28;20752;-74
2022/11/22 06:04:44;;;;;;;41.13;22.25;;;3.70;99.90;;;;;;5021751;28;20414;-73
2022/11/22 06:07:10;;;;;;;41.10;21.17;;;3.60;99.90;;;;;;5023476;28;20411;-73
2022/11/22 06:09:36;;;;;;;40.55;21.77;;;3.70;99.90;;;;;;5010396;28;20447;-74
2022/11/22 06:12:01;;;;;;;38.20;21.90;;;3.70;99.90;;;;;;5016043;28;20820;-73
2022/11/22 06:14:27;;;;;;;39.53;22.17;;;3.70;99.90;;;;;;5024164;28;20401;-73
2022/11/22 06:16:53;;;;;;;38.90;22.35;;;3.70;99.90;;;;;;5014399;28;20480;-74
2022/11/22 06:19:18;;;;;;;38.45;21.00;;;3.70;99.90;;;;;;5010221;28;20477;-73
2022/11/22 06:21:44;;;;;;;36.20;20.63;;;3.80;99.90;;;;;;5014512;28;20414;-74
2022/11/22 06:24:10;;;;;;;40.75;21.08;;;3.80;99.90;;;;;;4998488;28;20413;-73
2022/11/22 06:26:36;;;;;;;36.57;20.97;;;3.80;99.90;;;;;;5026753;28;20442;-73
2022/11/22 06:29:02;;;;;;;37.60;20.80;;;3.80;99.90;;;;;;5015612;28;20436;-73
2022/11/22 06:31:28;;;;;;;38.58;20.75;;;3.80;99.90;;;;;;4996097;28;20403;-74
2022/11/22 06:33:56;;;;;;;38.57;21.63;;;3.80;99.90;;;;;;5027615;28;20755;-73
2022/11/22 06:36:26;;;;;;;39.90;20.88;;;3.80;99.90;;;;;;5009454;28;20476;-74
2022/11/22 06:38:52;;;;;;;38.95;22.27;;;3.90;99.90;;;;;;5021034;28;20401;-74
2022/11/22 06:41:20;;;;;;;36.58;21.00;;;3.90;99.90;;;;;;5010294;28;20403;-74
2022/11/22 06:43:48;;;;;;;38.63;21.77;;;3.90;99.90;;;;;;5027598;28;20503;-74
2022/11/22 06:46:14;;;;;;;42.38;21.77;;;3.90;99.90;;;;;;5009012;28;20514;-74
2022/11/22 06:48:41;;;;;;;37.20;21.02;;;3.90;99.90;;;;;;5005142;28;20785;-74
2022/11/22 06:51:13;;;;;;;38.83;20.80;;;3.90;99.90;;;;;;5020733;28;20436;-74
2022/11/22 06:53:40;;;;;;;42.97;21.98;;;3.90;99.90;;;;;;5023307;28;20873;-74
2022/11/22 06:56:07;;;;;;;37.80;21.40;;;3.90;99.90;;;;;;5001181;28;20459;-74
2022/11/22 06:58:33;;;;;;;40.03;21.48;;;3.90;99.90;;;;;;5007182;28;20403;-74
2022/11/22 07:01:05;;;;;;;40.42;21.63;;;3.90;99.90;;;;;;4999474;28;20415;-74
2022/11/22 07:03:31;;;;;;;39.40;22.08;;;3.90;99.90;;;;;;5011545;28;20408;-74
2022/11/22 07:05:56;;;;;;;41.20;21.67;;;4.00;99.90;;;;;;5018081;28;20407;-74
2022/11/22 07:08:22;;;;;;;39.67;21.47;;;4.00;99.90;;;;;;5026396;28;20407;-73
2022/11/22 07:10:48;;;;;;;36.50;21.17;;;4.00;99.90;;;;;;5038018;28;20840;-74
2022/11/22 07:13:14;;;;;;;35.90;21.27;;;4.00;99.90;;;;;;5027710;28;20438;-74
2022/11/22 07:15:39;;;;;;;38.33;22.17;;;4.00;99.90;;;;;;4993035;28;20407;-74
2022/11/22 07:18:05;;;;;;;39.90;22.47;;;4.00;99.90;;;;;;5028971;28;21042;-73
2022/11/22 07:20:31;;;;;;;38.42;21.90;;;4.00;99.90;;;;;;5039243;28;20421;-74
2022/11/22 07:22:57;;;;;;;38.10;22.05;;;4.00;99.90;;;;;;5017792;28;20762;-74
2022/11/22 07:25:22;;;;;;;35.67;21.20;;;4.00;99.90;;;;;;5039503;28;20407;-74
2022/11/22 07:27:50;;;;;;;39.40;22.23;;;4.00;99.90;;;;;;5040170;28;20559;-74
2022/11/22 07:30:16;;;;;;;38.72;22.52;;;4.00;99.90;;;;;;5027196;28;20431;-74
2022/11/22 07:32:46;;;;;;;40.27;22.40;;;4.00;99.90;;;;;;5012064;28;20415;-74
2022/11/22 07:35:11;;;;;;;38.85;22.48;;;4.10;99.90;;;;;;5028673;28;20496;-74
2022/11/22 07:37:37;;;;;;;39.75;23.15;;;4.00;99.90;;;;;;5028311;28;20570;-74
2022/11/22 07:40:03;;;;;;;47.17;23.33;;;4.10;99.90;;;;;;5031341;28;20414;-74
2022/11/22 07:42:28;;;;;;;36.65;22.48;;;4.00;99.90;;;;;;5029190;28;20426;-73
2022/11/22 07:44:54;;;;;;;41.03;21.98;;;4.10;99.90;;;;;;5048614;28;20414;-74
2022/11/22 07:47:20;;;;;;;42.25;23.42;;;4.10;99.90;;;;;;5038916;28;20405;-74
2022/11/22 07:49:45;;;;;;;40.73;22.60;;;4.10;99.90;;;;;;5022543;28;20494;-74
2022/11/22 07:52:11;;;;;;;40.95;22.73;;;4.10;99.90;;;;;;5033904;28;20461;-74
2022/11/22 07:54:36;;;;;;;40.87;22.47;;;4.20;99.90;;;;;;5030976;28;20805;-74
2022/11/22 07:57:02;;;;;;;41.10;22.63;;;4.20;99.90;;;;;;5028970;28;20391;-74
2022/11/22 07:59:28;;;;;;;40.93;22.23;;;4.20;99.90;;;;;;5040335;28;20403;-74
2022/11/22 08:01:53;;;;;;;38.85;21.70;;;4.20;99.90;;;;;;5031286;28;20758;-74
2022/11/22 08:04:19;;;;;;;37.92;21.60;;;4.20;99.90;;;;;;5029736;28;20439;-74
2022/11/22 08:06:45;;;;;;;40.80;22.87;;;4.20;99.90;;;;;;5009826;28;20422;-74
2022/11/22 08:09:10;;;;;;;37.55;21.48;;;4.20;99.90;;;;;;5041383;28;20427;-74
2022/11/22 08:11:36;;;;;;;44.23;22.23;;;4.20;99.90;;;;;;5031237;28;20415;-73
2022/11/22 08:14:02;;;;;;;40.13;22.15;;;4.20;99.90;;;;;;5039463;28;20752;-74
2022/11/22 08:16:27;;;;;;;41.13;21.85;;;4.30;99.90;;;;;;5034830;28;20457;-74
2022/11/22 08:18:53;;;;;;;42.07;22.53;;;4.30;99.90;;;;;;5038964;28;20401;-74
2022/11/22 08:21:19;;;;;;;38.83;21.33;;;4.30;99.90;;;;;;5014512;28;20468;-74
2022/11/22 08:23:46;;;;;;;41.05;21.42;;;4.40;99.90;;;;;;5032053;28;20473;-74
2022/11/22 08:26:14;;;;;;;42.28;22.02;;;4.40;99.90;;;;;;5033805;28;20498;-74
2022/11/22 08:28:41;;;;;;;41.03;21.95;;;4.40;99.90;;;;;;5021822;28;20496;-75
2022/11/22 08:31:17;;;;;;;38.92;21.80;;;4.50;99.90;;;;;;5040527;28;20461;-74
2022/11/22 08:33:43;;;;;;;38.65;20.85;;;4.50;99.90;;;;;;5049997;28;20900;-74
2022/11/22 08:36:09;;;;;;;36.08;19.90;;;4.50;99.90;;;;;;5035582;28;20456;-74
2022/11/22 08:38:35;;;;;;;40.00;20.70;;;4.50;99.90;;;;;;5042216;28;20412;-74
2022/11/22 08:41:02;;;;;;;37.10;20.52;;;4.60;99.90;;;;;;5030972;28;20401;-73
2022/11/22 08:43:28;;;;;;;38.28;20.98;;;4.60;99.90;;;;;;5031462;28;20946;-74
2022/11/22 08:45:56;;;;;;;36.55;20.27;;;4.70;99.90;;;;;;5048372;28;20405;-74
2022/11/22 08:48:22;;;;;;;40.10;21.20;;;4.70;99.90;;;;;;5037954;28;20415;-74
2022/11/22 08:50:53;;;;;;;35.88;19.98;;;4.70;99.90;;;;;;5041944;28;20441;-72
2022/11/22 08:53:19;;;;;;;36.00;19.50;;;4.80;99.90;;;;;;5024643;28;20418;-73
2022/11/22 08:55:45;;;;;;;35.00;19.83;;;4.80;99.90;;;;;;5022400;28;20411;-73
2022/11/22 08:58:10;;;;;;;34.78;19.35;;;4.80;99.90;;;;;;5012863;28;20939;-73
2022/11/22 09:00:36;;;;;;;32.90;17.98;;;4.90;99.90;;;;;;5030707;28;20494;-75
2022/11/22 09:03:02;;;;;;;35.93;18.07;;;4.90;99.90;;;;;;5040357;28;20471;-76
2022/11/22 09:05:30;;;;;;;31.08;17.05;;;5.00;99.90;;;;;;5025673;28;20419;-73
2022/11/22 09:07:56;;;;;;;30.27;16.37;;;5.10;99.90;;;;;;5030662;28;20415;-73
2022/11/22 09:10:21;;;;;;;30.35;16.20;;;5.20;99.90;;;;;;5010077;28;20431;-73
2022/11/22 09:12:47;;;;;;;26.70;15.43;;;5.20;99.90;;;;;;5015864;28;20412;-73
2022/11/22 09:15:14;;;;;;;28.30;15.82;;;5.30;99.90;;;;;;5009779;28;20432;-73
2022/11/22 09:17:40;;;;;;;27.30;14.52;;;5.30;99.90;;;;;;5004075;28;20407;-75
2022/11/22 09:20:07;;;;;;;28.67;14.88;;;5.30;99.90;;;;;;5022847;28;20409;-73
2022/11/22 09:22:33;;;;;;;28.77;14.90;;;5.40;99.90;;;;;;5013897;28;20833;-74
2022/11/22 09:24:59;;;;;;;25.20;15.00;;;5.40;99.90;;;;;;5006941;28;20409;-73
2022/11/22 09:27:25;;;;;;;27.13;14.50;;;5.50;99.90;;;;;;5020692;28;20407;-73
2022/11/22 09:29:51;;;;;;;27.45;13.98;;;5.50;99.90;;;;;;5009472;28;20991;-73
2022/11/22 09:32:16;;;;;;;26.37;13.70;;;5.60;99.90;;;;;;5020827;28;20415;-73
2022/11/22 09:34:42;;;;;;;25.05;12.45;;;5.70;99.90;;;;;;5027649;28;20763;-73
2022/11/22 09:37:07;;;;;;;23.60;12.17;;;5.70;99.90;;;;;;5010945;28;20762;-73
2022/11/22 09:39:33;;;;;;;23.90;11.93;;;5.70;99.90;;;;;;5001008;28;20496;-74
2022/11/22 09:42:33;;;;;;;22.30;10.50;;;5.80;99.90;;;;;;5020977;28;20403;-73
2022/11/22 09:45:09;;;;;;;20.60;9.90;;;5.80;99.90;;;;;;4991797;28;20829;-73
2022/11/22 09:47:49;;;;;;;15.93;7.00;;;5.90;99.90;;;;;;5020355;28;20457;-73
2022/11/22 09:50:29;;;;;;;14.63;6.03;;;5.90;99.90;;;;;;5009694;28;20797;-73
2022/11/22 09:53:07;;;;;;;16.20;5.60;;;6.00;99.90;;;;;;4994761;28;20422;-73
2022/11/22 09:55:39;;;;;;;16.30;5.88;;;6.00;99.90;;;;;;5002596;28;20403;-73
2022/11/22 09:58:19;;;;;;;16.70;5.45;;;6.10;99.90;;;;;;4993936;28;20472;-72
2022/11/22 10:00:46;;;;;;;15.55;4.80;;;6.10;99.90;;;;;;5010621;28;20473;-73
2022/11/22 10:03:27;;;;;;;12.52;4.30;;;6.20;99.90;;;;;;5020251;28;20496;-73
2022/11/22 10:05:56;;;;;;;13.23;4.18;;;6.30;99.90;;;;;;5017818;28;20427;-73
2022/11/22 10:08:55;;;;;;;11.77;3.70;;;6.30;99.90;;;;;;5040225;28;20410;-73
2022/11/22 10:11:20;;;;;;;16.48;4.40;;;6.40;99.90;;;;;;5007446;28;20773;-73
2022/11/22 10:13:54;;;;;;;13.05;3.45;;;6.40;99.90;;;;;;5014469;28;20423;-73
2022/11/22 10:16:46;;;;;;;15.30;3.60;;;6.40;99.90;;;;;;5012744;28;20426;-73
2022/11/22 10:19:40;;;;;;;11.27;3.40;;;6.50;99.90;;;;;;5039090;28;20467;-73
2022/11/22 10:22:13;;;;;;;11.77;3.17;;;6.50;99.90;;;;;;5016932;28;20418;-73
2022/11/22 10:24:38;;;;;;;8.70;2.60;;;6.40;99.90;;;;;;5045689;28;20831;-74
2022/11/22 10:27:13;;;;;;;11.80;2.87;;;6.40;99.90;;;;;;5036398;28;20501;-73
2022/11/22 10:30:04;;;;;;;10.40;2.50;;;6.40;99.90;;;;;;5025574;28;20435;-74
2022/11/22 10:32:32;;;;;;;12.55;2.55;;;6.40;99.90;;;;;;5028240;28;20399;-73
2022/11/22 10:35:13;;;;;;;11.75;2.80;;;6.40;99.90;;;;;;5001855;28;20413;-73
2022/11/22 10:38:22;;;;;;;12.13;2.55;;;6.40;99.90;;;;;;5047782;28;20965;-74
2022/11/22 10:41:22;;;;;;;12.80;2.43;;;6.40;99.90;;;;;;4968041;28;20425;-74
2022/11/22 10:44:06;;;;;;;10.40;2.38;;;6.40;99.90;;;;;;4995429;28;20434;-73
2022/11/22 10:46:56;;;;;;;13.70;2.30;;;6.40;99.90;;;;;;5020081;28;20458;-74
2022/11/22 10:49:30;;;;;;;9.43;2.17;;;6.40;99.90;;;;;;5048276;28;20421;-73
2022/11/22 10:52:14;;;;;;;9.60;2.35;;;6.50;99.90;;;;;;5047045;28;20772;-74
2022/11/22 10:55:02;;;;;;;9.70;2.27;;;6.50;99.90;;;;;;5019082;28;20420;-74
2022/11/22 10:57:34;;;;;;;7.82;1.90;;;6.50;99.90;;;;;;5040001;28;20429;-73
2022/11/22 11:00:24;;;;;;;10.43;1.93;;;6.50;99.90;;;;;;4993168;28;20527;-74
2022/11/22 11:02:55;;;;;;;11.00;2.13;;;6.60;99.90;;;;;;5039236;28;20915;-74
2022/11/22 11:05:29;;;;;;;8.90;1.98;;;6.60;99.90;;;;;;5029483;28;20418;-73
2022/11/22 11:07:55;;;;;;;7.10;1.42;;;6.60;99.90;;;;;;5038408;28;20779;-73
2022/11/22 11:10:24;;;;;;;8.65;1.55;;;6.60;99.90;;;;;;5009129;28;20439;-74
2022/11/22 11:12:53;;;;;;;8.30;1.60;;;6.60;99.90;;;;;;5032650;28;20912;-73
2022/11/22 11:15:36;;;;;;;8.73;1.75;;;6.60;99.90;;;;;;5027431;28;20407;-73
2022/11/22 11:18:10;;;;;;;9.55;1.75;;;6.70;99.90;;;;;;5028631;28;20952;-73
2022/11/22 11:20:40;;;;;;;11.68;1.77;;;6.70;99.90;;;;;;5040894;28;20420;-74
2022/11/22 11:23:07;;;;;;;9.05;1.73;;;6.80;99.90;;;;;;5015473;28;21041;-74
2022/11/22 11:25:39;;;;;;;7.10;1.30;;;6.80;99.90;;;;;;5032639;28;20413;-73
2022/11/22 11:28:08;;;;;;;8.52;1.50;;;6.90;99.90;;;;;;5046765;28;20411;-73
2022/11/22 11:30:39;;;;;;;7.22;1.13;;;7.00;99.90;;;;;;5015882;28;20479;-74
2022/11/22 11:33:23;;;;;;;5.30;1.20;;;7.00;99.90;;;;;;5031965;28;20430;-74
2022/11/22 11:35:53;;;;;;;9.30;1.88;;;7.20;99.90;;;;;;5031805;28;20902;-73
2022/11/22 11:38:27;;;;;;;8.45;1.25;;;7.50;99.90;;;;;;5032269;28;20956;-73
2022/11/22 11:40:52;;;;;;;5.03;1.25;;;7.60;99.90;;;;;;5035182;28;20516;-73
2022/11/22 11:43:21;;;;;;;7.50;1.23;;;7.70;99.90;;;;;;5013245;28;20990;-74
2022/11/22 11:45:47;;;;;;;7.55;1.45;;;7.70;99.90;;;;;;5012085;28;20468;-74
2022/11/22 11:48:42;;;;;;;6.43;1.00;;;7.70;99.90;;;;;;5040364;28;20838;-74
2022/11/22 11:51:37;;;;;;;5.43;1.17;;;7.70;99.90;;;;;;5006902;28;20520;-73
2022/11/22 11:54:26;;;;;;;9.52;1.40;;;7.60;99.90;;;;;;5014462;28;20453;-73
2022/11/22 11:57:00;;;;;;;6.13;1.35;;;7.70;99.90;;;;;;5017261;28;20846;-73
2022/11/22 11:59:47;;;;;;;5.90;1.40;;;7.80;99.90;;;;;;5039002;28;20409;-73
2022/11/22 12:02:40;;;;;;;6.78;1.88;;;7.80;99.90;;;;;;5014291;28;20430;-73
2022/11/22 12:05:12;;;;;;;7.07;1.80;;;7.70;99.90;;;;;;5020838;28;20421;-73
2022/11/22 12:07:40;;;;;;;7.90;1.90;;;7.70;99.90;;;;;;5039703;28;20813;-73
2022/11/22 12:10:33;;;;;;;7.10;1.50;;;7.60;99.90;;;;;;5028243;28;20439;-73
2022/11/22 12:13:08;;;;;;;7.65;1.33;;;7.60;99.90;;;;;;5006286;28;20423;-73
2022/11/22 12:15:55;;;;;;;7.13;1.70;;;7.50;99.90;;;;;;5041310;28;20426;-73
2022/11/22 12:18:48;;;;;;;8.55;1.50;;;7.50;99.90;;;;;;5034505;28;20459;-74
2022/11/22 12:21:56;;;;;;;5.97;1.15;;;7.50;99.90;;;;;;5035905;28;20423;-73
2022/11/22 12:24:44;;;;;;;7.85;1.50;;;7.50;99.90;;;;;;4923281;28;20426;-73
2022/11/22 12:27:11;;;;;;;7.55;1.40;;;7.60;99.90;;;;;;4958589;28;20959;-73
2022/11/22 12:29:40;;;;;;;7.70;1.75;;;7.60;99.90;;;;;;4990089;28;20860;-73
2022/11/22 12:32:22;;;;;;;6.25;1.20;;;7.60;99.90;;;;;;5037171;28;20491;-73
2022/11/22 12:35:00;;;;;;;7.32;1.00;;;7.70;99.90;;;;;;5031153;28;20856;-73
2022/11/22 12:37:45;;;;;;;7.00;1.23;;;7.70;99.90;;;;;;5046373;28;20468;-73
2022/11/22 12:40:31;;;;;;;8.90;1.25;;;7.70;99.90;;;;;;5005254;28;20419;-73
2022/11/22 12:43:10;;;;;;;7.90;1.33;;;7.70;99.90;;;;;;5026268;28;20426;-73
2022/11/22 12:45:48;;;;;;;6.35;1.10;;;7.80;99.90;;;;;;5012668;28;20411;-73
2022/11/22 12:48:19;;;;;;;7.35;1.08;;;7.80;99.90;;;;;;5040732;28;21097;-73
2022/11/22 12:50:54;;;;;;;9.10;1.42;;;7.80;99.90;;;;;;5026988;28;20481;-73
2022/11/22 12:53:29;;;;;;;6.90;1.20;;;7.80;99.90;;;;;;5041585;28;20413;-73
2022/11/22 12:56:14;;;;;;;7.18;1.90;;;7.80;99.90;;;;;;5032102;28;20514;-73
2022/11/22 12:58:44;;;;;;;8.25;1.77;;;7.80;99.90;;;;;;5040017;28;20421;-73
2022/11/22 13:01:25;;;;;;;7.10;1.75;;;7.80;99.90;;;;;;5020948;28;20422;-73
2022/11/22 13:04:17;;;;;;;9.55;1.55;;;7.80;99.90;;;;;;5024717;28;20599;-73
2022/11/22 13:06:52;;;;;;;8.87;1.40;;;7.80;99.90;;;;;;4986857;28;20927;-73
2022/11/22 13:09:27;;;;;;;7.45;1.10;;;7.70;99.90;;;;;;5048583;28;20463;-73
2022/11/22 13:11:57;;;;;;;8.25;1.20;;;7.70;99.90;;;;;;5026456;28;20431;-73